Sanford, Texas
Current Conditions -  °F | °C
As of 9:51 AM on Wednesday 28 Jan 2015 (Local Time) from KBGD Reporting Station
Clear Clear  
Wind Chill: 54°   Ceiling: Unl
Heat Index: 54°   Visibility: 10mi
Dew Point: 37°   Wind: 15mph
Humidity: 53%   Direction: 260°W
Pressure: 30.02"   Gusts: 21mph
Location:  35.7°N, 101.53°W
Report Text: KBGD 281551Z AUTO 26013G18KT 10SM CLR 12/03 A3002 RMK AO2 SLP149 T01220028
Loading
Personal Weather Stations






























Interactive Weather Map New forecast layout! Learn more

10-Day Weather Forecast

Advertisements
Track Severe Weather on mobile